sensor_id;sensor_type;location;lat;lon;timestamp;P1;durP1;ratioP1;P2;durP2;ratioP2
14203;SDS011;7185;51.854;6.622;2023-04-19T00:01:00;18.38;;;11.10;;
14203;SDS011;7185;51.854;6.622;2023-04-19T00:03:32;16.50;;;10.88;;
14203;SDS011;7185;51.854;6.622;2023-04-19T00:06:05;15.98;;;10.80;;
14203;SDS011;7185;51.854;6.622;2023-04-19T00:08:37;20.95;;;11.55;;
14203;SDS011;7185;51.854;6.622;2023-04-19T00:11:09;17.95;;;11.05;;
14203;SDS011;7185;51.854;6.622;2023-04-19T00:13:40;19.48;;;10.95;;
14203;SDS011;7185;51.854;6.622;2023-04-19T00:16:12;16.88;;;11.32;;
14203;SDS011;7185;51.854;6.622;2023-04-19T00:18:44;17.08;;;10.68;;
14203;SDS011;7185;51.854;6.622;2023-04-19T00:21:19;20.63;;;10.95;;
14203;SDS011;7185;51.854;6.622;2023-04-19T00:23:50;19.48;;;11.13;;
14203;SDS011;7185;51.854;6.622;2023-04-19T00:26:24;17.25;;;10.85;;
14203;SDS011;7185;51.854;6.622;2023-04-19T00:28:55;16.98;;;10.60;;
14203;SDS011;7185;51.854;6.622;2023-04-19T00:31:27;18.45;;;11.05;;
14203;SDS011;7185;51.854;6.622;2023-04-19T00:33:58;17.15;;;11.00;;
14203;SDS011;7185;51.854;6.622;2023-04-19T00:36:31;19.10;;;11.00;;
14203;SDS011;7185;51.854;6.622;2023-04-19T00:39:03;17.23;;;10.77;;
14203;SDS011;7185;51.854;6.622;2023-04-19T00:41:35;23.77;;;11.25;;
14203;SDS011;7185;51.854;6.622;2023-04-19T00:44:06;19.65;;;11.18;;
14203;SDS011;7185;51.854;6.622;2023-04-19T00:46:38;16.52;;;10.32;;
14203;SDS011;7185;51.854;6.622;2023-04-19T00:49:10;17.08;;;10.75;;
14203;SDS011;7185;51.854;6.622;2023-04-19T00:51:43;17.70;;;11.57;;
14203;SDS011;7185;51.854;6.622;2023-04-19T00:54:14;18.08;;;11.27;;
14203;SDS011;7185;51.854;6.622;2023-04-19T00:56:47;17.20;;;10.65;;
14203;SDS011;7185;51.854;6.622;2023-04-19T00:59:18;18.38;;;10.40;;
14203;SDS011;7185;51.854;6.622;2023-04-19T01:01:50;16.13;;;10.32;;
14203;SDS011;7185;51.854;6.622;2023-04-19T01:04:22;17.85;;;10.55;;
14203;SDS011;7185;51.854;6.622;2023-04-19T01:06:55;16.75;;;10.18;;
14203;SDS011;7185;51.854;6.622;2023-04-19T01:09:26;16.67;;;10.45;;
14203;SDS011;7185;51.854;6.622;2023-04-19T01:11:58;17.02;;;11.32;;
14203;SDS011;7185;51.854;6.622;2023-04-19T01:14:30;15.02;;;10.65;;
14203;SDS011;7185;51.854;6.622;2023-04-19T01:17:02;15.23;;;9.60;;
14203;SDS011;7185;51.854;6.622;2023-04-19T01:19:34;16.58;;;9.48;;
14203;SDS011;7185;51.854;6.622;2023-04-19T01:22:07;17.40;;;10.30;;
14203;SDS011;7185;51.854;6.622;2023-04-19T01:24:41;15.02;;;9.55;;
14203;SDS011;7185;51.854;6.622;2023-04-19T01:27:12;17.95;;;9.60;;
14203;SDS011;7185;51.854;6.622;2023-04-19T01:29:45;15.95;;;9.73;;
14203;SDS011;7185;51.854;6.622;2023-04-19T01:32:17;16.17;;;10.13;;
14203;SDS011;7185;51.854;6.622;2023-04-19T01:34:49;14.00;;;8.98;;
14203;SDS011;7185;51.854;6.622;2023-04-19T01:37:22;16.15;;;9.82;;
14203;SDS011;7185;51.854;6.622;2023-04-19T01:39:55;12.38;;;8.38;;
14203;SDS011;7185;51.854;6.622;2023-04-19T01:42:27;13.05;;;8.60;;
14203;SDS011;7185;51.854;6.622;2023-04-19T01:44:58;12.77;;;8.98;;
14203;SDS011;7185;51.854;6.622;2023-04-19T01:47:30;13.52;;;8.70;;
14203;SDS011;7185;51.854;6.622;2023-04-19T01:50:02;13.40;;;8.82;;
14203;SDS011;7185;51.854;6.622;2023-04-19T01:52:33;15.10;;;8.85;;
14203;SDS011;7185;51.854;6.622;2023-04-19T01:55:07;15.05;;;9.35;;
14203;SDS011;7185;51.854;6.622;2023-04-19T01:57:39;13.50;;;8.63;;
14203;SDS011;7185;51.854;6.622;2023-04-19T02:00:11;13.40;;;8.23;;
14203;SDS011;7185;51.854;6.622;2023-04-19T02:02:44;13.38;;;8.98;;
14203;SDS011;7185;51.854;6.622;2023-04-19T02:05:15;13.85;;;8.52;;
14203;SDS011;7185;51.854;6.622;2023-04-19T02:07:47;14.07;;;9.32;;
14203;SDS011;7185;51.854;6.622;2023-04-19T02:10:20;14.57;;;8.60;;
14203;SDS011;7185;51.854;6.622;2023-04-19T02:12:52;13.05;;;8.73;;
14203;SDS011;7185;51.854;6.622;2023-04-19T02:15:24;14.00;;;8.75;;
14203;SDS011;7185;51.854;6.622;2023-04-19T02:17:55;13.82;;;8.27;;
14203;SDS011;7185;51.854;6.622;2023-04-19T02:20:29;16.42;;;8.80;;
14203;SDS011;7185;51.854;6.622;2023-04-19T02:23:01;13.65;;;8.68;;
14203;SDS011;7185;51.854;6.622;2023-04-19T02:25:34;13.55;;;8.35;;
14203;SDS011;7185;51.854;6.622;2023-04-19T02:28:05;12.85;;;7.75;;
14203;SDS011;7185;51.854;6.622;2023-04-19T02:30:37;12.55;;;8.18;;
14203;SDS011;7185;51.854;6.622;2023-04-19T02:33:09;14.98;;;7.82;;
14203;SDS011;7185;51.854;6.622;2023-04-19T02:35:40;13.65;;;8.23;;
14203;SDS011;7185;51.854;6.622;2023-04-19T02:38:12;12.93;;;7.63;;
14203;SDS011;7185;51.854;6.622;2023-04-19T02:40:45;14.88;;;8.30;;
14203;SDS011;7185;51.854;6.622;2023-04-19T02:43:16;15.35;;;7.95;;
14203;SDS011;7185;51.854;6.622;2023-04-19T02:45:48;11.18;;;6.90;;
14203;SDS011;7185;51.854;6.622;2023-04-19T02:48:19;13.38;;;6.95;;
14203;SDS011;7185;51.854;6.622;2023-04-19T02:50:51;10.23;;;6.65;;
14203;SDS011;7185;51.854;6.622;2023-04-19T02:53:23;11.93;;;7.20;;
14203;SDS011;7185;51.854;6.622;2023-04-19T02:55:55;12.50;;;6.80;;
14203;SDS011;7185;51.854;6.622;2023-04-19T02:58:27;12.52;;;6.90;;
14203;SDS011;7185;51.854;6.622;2023-04-19T03:00:59;13.75;;;6.53;;
14203;SDS011;7185;51.854;6.622;2023-04-19T03:03:30;14.32;;;6.47;;
14203;SDS011;7185;51.854;6.622;2023-04-19T03:06:02;9.10;;;5.95;;
14203;SDS011;7185;51.854;6.622;2023-04-19T03:08:33;9.25;;;5.88;;
14203;SDS011;7185;51.854;6.622;2023-04-19T03:11:06;12.05;;;6.30;;
14203;SDS011;7185;51.854;6.622;2023-04-19T03:13:38;10.13;;;6.53;;
14203;SDS011;7185;51.854;6.622;2023-04-19T03:16:09;11.55;;;6.13;;
14203;SDS011;7185;51.854;6.622;2023-04-19T03:18:41;11.60;;;6.47;;
14203;SDS011;7185;51.854;6.622;2023-04-19T03:21:13;10.80;;;6.68;;
14203;SDS011;7185;51.854;6.622;2023-04-19T03:23:44;11.50;;;6.78;;
14203;SDS011;7185;51.854;6.622;2023-04-19T03:26:17;10.18;;;6.85;;
14203;SDS011;7185;51.854;6.622;2023-04-19T03:28:49;10.10;;;6.38;;
14203;SDS011;7185;51.854;6.622;2023-04-19T03:31:20;9.27;;;6.28;;
14203;SDS011;7185;51.854;6.622;2023-04-19T03:33:52;11.20;;;6.55;;
14203;SDS011;7185;51.854;6.622;2023-04-19T03:36:24;10.73;;;6.60;;
14203;SDS011;7185;51.854;6.622;2023-04-19T03:38:55;13.05;;;7.22;;
14203;SDS011;7185;51.854;6.622;2023-04-19T03:41:28;12.70;;;6.63;;
14203;SDS011;7185;51.854;6.622;2023-04-19T03:44:00;11.60;;;6.68;;
14203;SDS011;7185;51.854;6.622;2023-04-19T03:46:32;10.73;;;6.80;;
14203;SDS011;7185;51.854;6.622;2023-04-19T03:49:03;10.95;;;7.05;;
14203;SDS011;7185;51.854;6.622;2023-04-19T03:51:35;10.38;;;6.97;;
14203;SDS011;7185;51.854;6.622;2023-04-19T03:54:06;11.35;;;6.30;;
14203;SDS011;7185;51.854;6.622;2023-04-19T03:56:39;12.00;;;6.97;;
14203;SDS011;7185;51.854;6.622;2023-04-19T03:59:11;13.55;;;7.22;;
14203;SDS011;7185;51.854;6.622;2023-04-19T04:01:42;9.43;;;6.60;;
14203;SDS011;7185;51.854;6.622;2023-04-19T04:04:14;11.50;;;6.90;;
14203;SDS011;7185;51.854;6.622;2023-04-19T04:06:45;12.77;;;6.80;;
14203;SDS011;7185;51.854;6.622;2023-04-19T04:09:17;15.52;;;7.47;;
14203;SDS011;7185;51.854;6.622;2023-04-19T04:11:50;12.32;;;6.30;;
14203;SDS011;7185;51.854;6.622;2023-04-19T04:14:22;13.35;;;7.00;;
14203;SDS011;7185;51.854;6.622;2023-04-19T04:16:54;9.93;;;6.40;;
14203;SDS011;7185;51.854;6.622;2023-04-19T04:19:25;15.27;;;7.85;;
14203;SDS011;7185;51.854;6.622;2023-04-19T04:21:57;11.85;;;6.70;;
14203;SDS011;7185;51.854;6.622;2023-04-19T04:24:28;11.63;;;6.82;;
14203;SDS011;7185;51.854;6.622;2023-04-19T04:27:03;12.15;;;6.90;;
14203;SDS011;7185;51.854;6.622;2023-04-19T04:29:34;11.95;;;7.18;;
14203;SDS011;7185;51.854;6.622;2023-04-19T04:32:07;10.52;;;6.78;;
14203;SDS011;7185;51.854;6.622;2023-04-19T04:34:40;11.55;;;6.63;;
14203;SDS011;7185;51.854;6.622;2023-04-19T04:37:11;14.73;;;7.57;;
14203;SDS011;7185;51.854;6.622;2023-04-19T04:39:43;10.98;;;6.65;;
14203;SDS011;7185;51.854;6.622;2023-04-19T04:42:16;10.02;;;6.88;;
14203;SDS011;7185;51.854;6.622;2023-04-19T04:44:50;11.77;;;6.90;;
14203;SDS011;7185;51.854;6.622;2023-04-19T04:47:22;17.02;;;7.55;;
14203;SDS011;7185;51.854;6.622;2023-04-19T04:49:53;13.15;;;6.63;;
14203;SDS011;7185;51.854;6.622;2023-04-19T04:52:25;12.63;;;6.65;;
14203;SDS011;7185;51.854;6.622;2023-04-19T04:54:57;10.02;;;6.03;;
14203;SDS011;7185;51.854;6.622;2023-04-19T04:57:31;13.40;;;6.65;;
14203;SDS011;7185;51.854;6.622;2023-04-19T05:00:03;13.30;;;6.85;;
14203;SDS011;7185;51.854;6.622;2023-04-19T05:02:35;10.02;;;6.28;;
14203;SDS011;7185;51.854;6.622;2023-04-19T05:05:07;11.80;;;6.35;;
14203;SDS011;7185;51.854;6.622;2023-04-19T05:07:40;10.98;;;5.93;;
14203;SDS011;7185;51.854;6.622;2023-04-19T05:10:13;13.32;;;6.25;;
14203;SDS011;7185;51.854;6.622;2023-04-19T05:12:45;11.57;;;6.70;;
14203;SDS011;7185;51.854;6.622;2023-04-19T05:15:17;10.38;;;5.72;;
14203;SDS011;7185;51.854;6.622;2023-04-19T05:17:49;11.05;;;6.63;;
14203;SDS011;7185;51.854;6.622;2023-04-19T05:20:20;9.90;;;6.07;;
14203;SDS011;7185;51.854;6.622;2023-04-19T05:22:55;9.43;;;5.82;;
14203;SDS011;7185;51.854;6.622;2023-04-19T05:25:27;11.02;;;6.20;;
14203;SDS011;7185;51.854;6.622;2023-04-19T05:28:01;10.30;;;5.82;;
14203;SDS011;7185;51.854;6.622;2023-04-19T05:30:33;14.55;;;6.38;;
14203;SDS011;7185;51.854;6.622;2023-04-19T05:33:05;10.00;;;5.88;;
14203;SDS011;7185;51.854;6.622;2023-04-19T05:35:36;11.10;;;5.70;;
14203;SDS011;7185;51.854;6.622;2023-04-19T05:38:08;12.90;;;6.07;;
14203;SDS011;7185;51.854;6.622;2023-04-19T05:40:39;8.43;;;5.45;;
14203;SDS011;7185;51.854;6.622;2023-04-19T05:43:12;10.23;;;5.38;;
14203;SDS011;7185;51.854;6.622;2023-04-19T05:45:44;8.90;;;5.57;;
14203;SDS011;7185;51.854;6.622;2023-04-19T05:48:16;9.90;;;5.63;;
14203;SDS011;7185;51.854;6.622;2023-04-19T05:50:47;8.55;;;5.13;;
14203;SDS011;7185;51.854;6.622;2023-04-19T05:53:21;8.48;;;5.53;;
14203;SDS011;7185;51.854;6.622;2023-04-19T05:55:53;8.02;;;5.53;;
14203;SDS011;7185;51.854;6.622;2023-04-19T05:58:26;9.05;;;4.60;;
14203;SDS011;7185;51.854;6.622;2023-04-19T06:00:57;10.85;;;5.60;;
14203;SDS011;7185;51.854;6.622;2023-04-19T06:03:29;11.27;;;5.13;;
14203;SDS011;7185;51.854;6.622;2023-04-19T06:06:02;8.05;;;4.93;;
14203;SDS011;7185;51.854;6.622;2023-04-19T06:08:34;8.48;;;4.90;;
14203;SDS011;7185;51.854;6.622;2023-04-19T06:11:05;8.63;;;4.40;;
14203;SDS011;7185;51.854;6.622;2023-04-19T06:13:38;7.07;;;4.10;;
14203;SDS011;7185;51.854;6.622;2023-04-19T06:16:10;8.07;;;4.20;;
14203;SDS011;7185;51.854;6.622;2023-04-19T06:18:41;8.52;;;4.50;;
14203;SDS011;7185;51.854;6.622;2023-04-19T06:21:13;11.05;;;4.47;;
14203;SDS011;7185;51.854;6.622;2023-04-19T06:23:45;7.93;;;4.10;;
14203;SDS011;7185;51.854;6.622;2023-04-19T06:26:16;6.93;;;3.90;;
14203;SDS011;7185;51.854;6.622;2023-04-19T06:28:49;9.75;;;4.18;;
14203;SDS011;7185;51.854;6.622;2023-04-19T06:31:21;7.88;;;4.30;;
14203;SDS011;7185;51.854;6.622;2023-04-19T06:33:54;5.95;;;4.20;;
14203;SDS011;7185;51.854;6.622;2023-04-19T06:36:25;7.68;;;3.65;;
14203;SDS011;7185;51.854;6.622;2023-04-19T06:38:57;7.00;;;3.83;;
14203;SDS011;7185;51.854;6.622;2023-04-19T06:41:28;8.52;;;4.20;;
14203;SDS011;7185;51.854;6.622;2023-04-19T06:44:01;7.03;;;4.18;;
14203;SDS011;7185;51.854;6.622;2023-04-19T06:46:33;11.35;;;3.80;;
14203;SDS011;7185;51.854;6.622;2023-04-19T06:49:04;7.80;;;4.13;;
14203;SDS011;7185;51.854;6.622;2023-04-19T06:51:36;7.22;;;3.97;;
14203;SDS011;7185;51.854;6.622;2023-04-19T06:54:08;9.30;;;4.03;;
14203;SDS011;7185;51.854;6.622;2023-04-19T06:56:41;4.57;;;3.17;;
14203;SDS011;7185;51.854;6.622;2023-04-19T06:59:16;7.50;;;3.30;;
14203;SDS011;7185;51.854;6.622;2023-04-19T07:01:49;6.45;;;3.75;;
14203;SDS011;7185;51.854;6.622;2023-04-19T07:04:21;6.63;;;3.45;;
14203;SDS011;7185;51.854;6.622;2023-04-19T07:06:52;7.72;;;3.42;;
14203;SDS011;7185;51.854;6.622;2023-04-19T07:09:24;7.22;;;4.43;;
14203;SDS011;7185;51.854;6.622;2023-04-19T07:11:55;5.45;;;3.10;;
14203;SDS011;7185;51.854;6.622;2023-04-19T07:14:28;6.38;;;3.33;;
14203;SDS011;7185;51.854;6.622;2023-04-19T07:17:00;7.57;;;3.58;;
14203;SDS011;7185;51.854;6.622;2023-04-19T07:19:31;5.68;;;4.13;;
14203;SDS011;7185;51.854;6.622;2023-04-19T07:22:04;7.05;;;3.55;;
14203;SDS011;7185;51.854;6.622;2023-04-19T07:24:36;7.93;;;3.60;;
14203;SDS011;7185;51.854;6.622;2023-04-19T07:27:09;6.18;;;3.17;;
14203;SDS011;7185;51.854;6.622;2023-04-19T07:29:42;6.90;;;3.45;;
14203;SDS011;7185;51.854;6.622;2023-04-19T07:32:14;10.38;;;3.25;;
14203;SDS011;7185;51.854;6.622;2023-04-19T07:34:45;8.55;;;3.30;;
14203;SDS011;7185;51.854;6.622;2023-04-19T07:37:17;7.82;;;3.70;;
14203;SDS011;7185;51.854;6.622;2023-04-19T07:39:49;7.32;;;3.67;;
14203;SDS011;7185;51.854;6.622;2023-04-19T07:42:21;7.78;;;3.22;;
14203;SDS011;7185;51.854;6.622;2023-04-19T07:44:54;6.38;;;3.40;;
14203;SDS011;7185;51.854;6.622;2023-04-19T07:47:25;6.05;;;3.47;;
14203;SDS011;7185;51.854;6.622;2023-04-19T07:49:57;6.70;;;3.17;;
14203;SDS011;7185;51.854;6.622;2023-04-19T07:52:30;7.40;;;3.20;;
14203;SDS011;7185;51.854;6.622;2023-04-19T07:55:01;7.28;;;3.17;;
14203;SDS011;7185;51.854;6.622;2023-04-19T07:57:33;4.53;;;2.75;;
14203;SDS011;7185;51.854;6.622;2023-04-19T08:00:07;5.60;;;2.95;;
14203;SDS011;7185;51.854;6.622;2023-04-19T08:02:41;5.72;;;2.80;;
14203;SDS011;7185;51.854;6.622;2023-04-19T08:05:13;6.00;;;2.85;;
14203;SDS011;7185;51.854;6.622;2023-04-19T08:07:46;7.22;;;3.03;;
14203;SDS011;7185;51.854;6.622;2023-04-19T08:10:17;5.25;;;2.65;;
14203;SDS011;7185;51.854;6.622;2023-04-19T08:12:50;6.82;;;2.75;;
14203;SDS011;7185;51.854;6.622;2023-04-19T08:15:23;3.78;;;2.22;;
14203;SDS011;7185;51.854;6.622;2023-04-19T08:17:55;8.07;;;2.53;;
14203;SDS011;7185;51.854;6.622;2023-04-19T08:20:26;4.32;;;2.63;;
14203;SDS011;7185;51.854;6.622;2023-04-19T08:22:58;5.25;;;2.50;;
14203;SDS011;7185;51.854;6.622;2023-04-19T08:25:30;6.30;;;2.30;;
14203;SDS011;7185;51.854;6.622;2023-04-19T08:28:02;5.50;;;2.22;;
14203;SDS011;7185;51.854;6.622;2023-04-19T08:30:35;5.85;;;2.55;;
14203;SDS011;7185;51.854;6.622;2023-04-19T08:33:06;5.22;;;2.25;;
14203;SDS011;7185;51.854;6.622;2023-04-19T08:35:38;5.40;;;2.15;;
14203;SDS011;7185;51.854;6.622;2023-04-19T08:38:11;8.68;;;2.10;;
14203;SDS011;7185;51.854;6.622;2023-04-19T08:40:44;3.88;;;2.10;;
14203;SDS011;7185;51.854;6.622;2023-04-19T08:43:17;4.43;;;2.40;;
14203;SDS011;7185;51.854;6.622;2023-04-19T08:45:51;6.05;;;2.25;;
14203;SDS011;7185;51.854;6.622;2023-04-19T08:48:24;5.15;;;2.00;;
14203;SDS011;7185;51.854;6.622;2023-04-19T08:50:58;5.00;;;2.70;;
14203;SDS011;7185;51.854;6.622;2023-04-19T08:53:30;5.07;;;2.58;;
14203;SDS011;7185;51.854;6.622;2023-04-19T08:56:04;5.25;;;2.58;;
14203;SDS011;7185;51.854;6.622;2023-04-19T08:58:38;5.32;;;2.65;;
14203;SDS011;7185;51.854;6.622;2023-04-19T09:01:11;7.18;;;2.60;;
14203;SDS011;7185;51.854;6.622;2023-04-19T09:03:42;5.20;;;2.30;;
14203;SDS011;7185;51.854;6.622;2023-04-19T09:06:15;6.05;;;2.72;;
14203;SDS011;7185;51.854;6.622;2023-04-19T09:08:47;3.97;;;2.42;;
14203;SDS011;7185;51.854;6.622;2023-04-19T09:11:20;6.82;;;2.30;;
14203;SDS011;7185;51.854;6.622;2023-04-19T09:13:52;4.15;;;2.20;;
14203;SDS011;7185;51.854;6.622;2023-04-19T09:16:39;6.97;;;2.40;;
14203;SDS011;7185;51.854;6.622;2023-04-19T09:19:11;8.73;;;2.95;;
14203;SDS011;7185;51.854;6.622;2023-04-19T09:21:45;7.63;;;2.60;;
14203;SDS011;7185;51.854;6.622;2023-04-19T09:27:10;9.35;;;2.60;;
14203;SDS011;7185;51.854;6.622;2023-04-19T09:29:42;10.32;;;2.35;;
14203;SDS011;7185;51.854;6.622;2023-04-19T09:32:25;5.65;;;2.40;;
14203;SDS011;7185;51.854;6.622;2023-04-19T09:34:58;4.40;;;2.30;;
14203;SDS011;7185;51.854;6.622;2023-04-19T09:37:30;5.05;;;2.10;;
14203;SDS011;7185;51.854;6.622;2023-04-19T09:40:12;6.30;;;2.30;;
14203;SDS011;7185;51.854;6.622;2023-04-19T09:42:52;5.45;;;2.20;;
14203;SDS011;7185;51.854;6.622;2023-04-19T09:45:25;5.03;;;2.17;;
14203;SDS011;7185;51.854;6.622;2023-04-19T09:48:02;4.57;;;2.30;;
14203;SDS011;7185;51.854;6.622;2023-04-19T09:50:36;5.00;;;2.58;;
14203;SDS011;7185;51.854;6.622;2023-04-19T09:55:54;7.22;;;2.47;;
14203;SDS011;7185;51.854;6.622;2023-04-19T09:58:30;5.60;;;2.50;;
14203;SDS011;7185;51.854;6.622;2023-04-19T10:01:02;7.00;;;2.15;;
14203;SDS011;7185;51.854;6.622;2023-04-19T10:03:36;5.18;;;2.25;;
14203;SDS011;7185;51.854;6.622;2023-04-19T10:06:19;4.03;;;2.40;;
14203;SDS011;7185;51.854;6.622;2023-04-19T10:08:52;5.72;;;2.58;;
14203;SDS011;7185;51.854;6.622;2023-04-19T10:11:29;9.00;;;2.92;;
14203;SDS011;7185;51.854;6.622;2023-04-19T10:14:06;6.47;;;2.53;;
14203;SDS011;7185;51.854;6.622;2023-04-19T10:16:41;4.95;;;2.30;;
14203;SDS011;7185;51.854;6.622;2023-04-19T10:19:21;5.22;;;2.20;;
14203;SDS011;7185;51.854;6.622;2023-04-19T10:21:57;3.67;;;2.30;;
14203;SDS011;7185;51.854;6.622;2023-04-19T10:24:34;6.95;;;3.00;;
14203;SDS011;7185;51.854;6.622;2023-04-19T10:27:07;3.38;;;2.33;;
14203;SDS011;7185;51.854;6.622;2023-04-19T10:32:56;5.28;;;2.83;;
14203;SDS011;7185;51.854;6.622;2023-04-19T10:35:34;4.57;;;2.80;;
14203;SDS011;7185;51.854;6.622;2023-04-19T10:38:08;4.25;;;2.40;;
14203;SDS011;7185;51.854;6.622;2023-04-19T10:40:56;8.38;;;2.45;;
14203;SDS011;7185;51.854;6.622;2023-04-19T10:46:07;8.27;;;2.50;;
14203;SDS011;7185;51.854;6.622;2023-04-19T10:48:56;4.68;;;2.47;;
14203;SDS011;7185;51.854;6.622;2023-04-19T10:51:38;5.40;;;2.40;;
14203;SDS011;7185;51.854;6.622;2023-04-19T10:54:26;5.20;;;2.45;;
14203;SDS011;7185;51.854;6.622;2023-04-19T10:57:02;4.63;;;2.50;;
14203;SDS011;7185;51.854;6.622;2023-04-19T10:59:38;7.57;;;2.55;;
14203;SDS011;7185;51.854;6.622;2023-04-19T11:02:29;9.05;;;3.15;;
14203;SDS011;7185;51.854;6.622;2023-04-19T11:05:04;10.10;;;3.22;;
14203;SDS011;7185;51.854;6.622;2023-04-19T11:07:42;5.63;;;2.80;;
14203;SDS011;7185;51.854;6.622;2023-04-19T11:10:17;4.25;;;2.50;;
14203;SDS011;7185;51.854;6.622;2023-04-19T11:12:58;4.20;;;2.50;;
14203;SDS011;7185;51.854;6.622;2023-04-19T11:15:30;4.35;;;2.83;;
14203;SDS011;7185;51.854;6.622;2023-04-19T11:18:02;5.07;;;2.60;;
14203;SDS011;7185;51.854;6.622;2023-04-19T11:20:41;5.15;;;2.70;;
14203;SDS011;7185;51.854;6.622;2023-04-19T11:23:19;4.32;;;2.63;;
14203;SDS011;7185;51.854;6.622;2023-04-19T11:25:54;7.63;;;2.53;;
14203;SDS011;7185;51.854;6.622;2023-04-19T11:28:33;5.43;;;2.60;;
14203;SDS011;7185;51.854;6.622;2023-04-19T11:31:08;9.18;;;2.67;;
14203;SDS011;7185;51.854;6.622;2023-04-19T11:33:53;5.68;;;2.72;;
14203;SDS011;7185;51.854;6.622;2023-04-19T11:36:37;5.13;;;2.80;;
14203;SDS011;7185;51.854;6.622;2023-04-19T11:39:19;4.72;;;2.60;;
14203;SDS011;7185;51.854;6.622;2023-04-19T11:41:56;6.65;;;2.47;;
14203;SDS011;7185;51.854;6.622;2023-04-19T11:44:28;9.25;;;2.83;;
14203;SDS011;7185;51.854;6.622;2023-04-19T11:47:07;4.88;;;2.67;;
14203;SDS011;7185;51.854;6.622;2023-04-19T11:49:43;3.85;;;2.42;;
14203;SDS011;7185;51.854;6.622;2023-04-19T11:52:21;7.47;;;2.97;;
14203;SDS011;7185;51.854;6.622;2023-04-19T11:57:57;5.53;;;2.97;;
14203;SDS011;7185;51.854;6.622;2023-04-19T12:00:35;5.10;;;2.90;;
14203;SDS011;7185;51.854;6.622;2023-04-19T12:03:10;7.20;;;3.20;;
14203;SDS011;7185;51.854;6.622;2023-04-19T12:05:50;5.95;;;3.33;;
14203;SDS011;7185;51.854;6.622;2023-04-19T12:08:29;5.90;;;3.17;;
14203;SDS011;7185;51.854;6.622;2023-04-19T12:11:04;7.43;;;2.80;;
14203;SDS011;7185;51.854;6.622;2023-04-19T12:13:36;5.97;;;2.88;;
14203;SDS011;7185;51.854;6.622;2023-04-19T12:16:10;3.80;;;2.45;;
14203;SDS011;7185;51.854;6.622;2023-04-19T12:18:46;7.93;;;2.92;;
14203;SDS011;7185;51.854;6.622;2023-04-19T12:21:22;4.65;;;3.35;;
14203;SDS011;7185;51.854;6.622;2023-04-19T12:24:02;4.43;;;2.80;;
14203;SDS011;7185;51.854;6.622;2023-04-19T12:26:35;6.57;;;3.33;;
14203;SDS011;7185;51.854;6.622;2023-04-19T12:29:07;6.60;;;2.85;;
14203;SDS011;7185;51.854;6.622;2023-04-19T12:31:39;6.25;;;3.35;;
14203;SDS011;7185;51.854;6.622;2023-04-19T12:34:15;7.18;;;3.22;;
14203;SDS011;7185;51.854;6.622;2023-04-19T12:36:53;7.85;;;3.55;;
14203;SDS011;7185;51.854;6.622;2023-04-19T12:39:27;6.82;;;3.40;;
14203;SDS011;7185;51.854;6.622;2023-04-19T12:42:01;8.05;;;3.47;;
14203;SDS011;7185;51.854;6.622;2023-04-19T12:44:36;5.05;;;3.28;;
14203;SDS011;7185;51.854;6.622;2023-04-19T12:47:11;8.90;;;3.70;;
14203;SDS011;7185;51.854;6.622;2023-04-19T12:49:43;7.47;;;4.03;;
14203;SDS011;7185;51.854;6.622;2023-04-19T12:52:14;5.35;;;3.70;;
14203;SDS011;7185;51.854;6.622;2023-04-19T12:54:46;9.50;;;3.55;;
14203;SDS011;7185;51.854;6.622;2023-04-19T12:57:27;6.88;;;3.40;;
14203;SDS011;7185;51.854;6.622;2023-04-19T13:00:02;8.93;;;3.38;;
14203;SDS011;7185;51.854;6.622;2023-04-19T13:02:35;5.13;;;2.90;;
14203;SDS011;7185;51.854;6.622;2023-04-19T13:05:14;7.22;;;3.40;;
14203;SDS011;7185;51.854;6.622;2023-04-19T13:07:46;6.53;;;3.42;;
14203;SDS011;7185;51.854;6.622;2023-04-19T13:10:17;6.95;;;3.30;;
14203;SDS011;7185;51.854;6.622;2023-04-19T13:12:51;5.75;;;3.15;;
14203;SDS011;7185;51.854;6.622;2023-04-19T13:15:23;6.88;;;3.60;;
14203;SDS011;7185;51.854;6.622;2023-04-19T13:17:57;5.82;;;3.33;;
14203;SDS011;7185;51.854;6.622;2023-04-19T13:20:29;8.85;;;4.00;;
14203;SDS011;7185;51.854;6.622;2023-04-19T13:23:00;6.25;;;3.58;;
14203;SDS011;7185;51.854;6.622;2023-04-19T13:25:32;9.18;;;3.88;;
14203;SDS011;7185;51.854;6.622;2023-04-19T13:28:06;6.50;;;3.47;;
14203;SDS011;7185;51.854;6.622;2023-04-19T13:30:37;5.47;;;3.17;;
14203;SDS011;7185;51.854;6.622;2023-04-19T13:33:10;5.07;;;2.97;;
14203;SDS011;7185;51.854;6.622;2023-04-19T13:35:41;5.40;;;3.10;;
14203;SDS011;7185;51.854;6.622;2023-04-19T13:38:14;8.05;;;3.40;;
14203;SDS011;7185;51.854;6.622;2023-04-19T13:40:46;7.97;;;3.80;;
14203;SDS011;7185;51.854;6.622;2023-04-19T13:43:19;7.30;;;3.67;;
14203;SDS011;7185;51.854;6.622;2023-04-19T13:45:51;7.38;;;4.07;;
14203;SDS011;7185;51.854;6.622;2023-04-19T13:48:23;5.43;;;3.40;;
14203;SDS011;7185;51.854;6.622;2023-04-19T13:50:58;6.95;;;3.58;;
14203;SDS011;7185;51.854;6.622;2023-04-19T13:53:30;6.72;;;3.60;;
14203;SDS011;7185;51.854;6.622;2023-04-19T13:56:01;5.93;;;3.85;;
14203;SDS011;7185;51.854;6.622;2023-04-19T13:58:35;5.65;;;3.90;;
14203;SDS011;7185;51.854;6.622;2023-04-19T14:01:07;6.13;;;4.05;;
14203;SDS011;7185;51.854;6.622;2023-04-19T14:03:39;7.15;;;4.05;;
14203;SDS011;7185;51.854;6.622;2023-04-19T14:06:11;7.10;;;4.25;;
14203;SDS011;7185;51.854;6.622;2023-04-19T14:08:45;6.88;;;4.18;;
14203;SDS011;7185;51.854;6.622;2023-04-19T14:11:20;6.43;;;4.18;;
14203;SDS011;7185;51.854;6.622;2023-04-19T14:13:56;6.93;;;3.90;;
14203;SDS011;7185;51.854;6.622;2023-04-19T14:16:30;6.90;;;3.92;;
14203;SDS011;7185;51.854;6.622;2023-04-19T14:19:02;7.75;;;3.80;;
14203;SDS011;7185;51.854;6.622;2023-04-19T14:21:38;5.40;;;3.88;;
14203;SDS011;7185;51.854;6.622;2023-04-19T14:24:13;10.88;;;4.03;;
14203;SDS011;7185;51.854;6.622;2023-04-19T14:26:53;10.70;;;4.13;;
14203;SDS011;7185;51.854;6.622;2023-04-19T14:29:27;10.25;;;4.68;;
14203;SDS011;7185;51.854;6.622;2023-04-19T14:31:59;9.35;;;4.15;;
14203;SDS011;7185;51.854;6.622;2023-04-19T14:34:31;6.80;;;4.13;;
14203;SDS011;7185;51.854;6.622;2023-04-19T14:37:03;6.18;;;4.22;;
14203;SDS011;7185;51.854;6.622;2023-04-19T14:39:38;5.80;;;4.28;;
14203;SDS011;7185;51.854;6.622;2023-04-19T14:42:10;7.30;;;4.18;;
14203;SDS011;7185;51.854;6.622;2023-04-19T14:44:43;7.13;;;3.80;;
14203;SDS011;7185;51.854;6.622;2023-04-19T14:47:16;9.27;;;4.00;;
14203;SDS011;7185;51.854;6.622;2023-04-19T14:49:48;9.63;;;3.92;;
14203;SDS011;7185;51.854;6.622;2023-04-19T14:52:19;6.75;;;3.85;;
14203;SDS011;7185;51.854;6.622;2023-04-19T14:54:51;5.65;;;3.83;;
14203;SDS011;7185;51.854;6.622;2023-04-19T14:57:23;7.22;;;3.78;;
14203;SDS011;7185;51.854;6.622;2023-04-19T14:59:57;7.45;;;3.85;;
14203;SDS011;7185;51.854;6.622;2023-04-19T15:02:30;9.18;;;4.15;;
14203;SDS011;7185;51.854;6.622;2023-04-19T15:05:01;5.93;;;4.03;;
14203;SDS011;7185;51.854;6.622;2023-04-19T15:07:33;5.47;;;3.28;;
14203;SDS011;7185;51.854;6.622;2023-04-19T15:10:07;7.65;;;4.00;;
14203;SDS011;7185;51.854;6.622;2023-04-19T15:12:44;7.75;;;3.60;;
14203;SDS011;7185;51.854;6.622;2023-04-19T15:15:20;5.35;;;3.35;;
14203;SDS011;7185;51.854;6.622;2023-04-19T15:17:54;5.25;;;3.83;;
14203;SDS011;7185;51.854;6.622;2023-04-19T15:20:30;7.07;;;3.55;;
14203;SDS011;7185;51.854;6.622;2023-04-19T15:23:02;6.38;;;3.33;;
14203;SDS011;7185;51.854;6.622;2023-04-19T15:25:34;5.80;;;3.20;;
14203;SDS011;7185;51.854;6.622;2023-04-19T15:28:06;7.03;;;3.40;;
14203;SDS011;7185;51.854;6.622;2023-04-19T15:30:42;6.85;;;3.45;;
14203;SDS011;7185;51.854;6.622;2023-04-19T15:33:14;6.67;;;2.90;;
14203;SDS011;7185;51.854;6.622;2023-04-19T15:35:52;5.20;;;3.30;;
14203;SDS011;7185;51.854;6.622;2023-04-19T15:41:42;6.63;;;2.80;;
14203;SDS011;7185;51.854;6.622;2023-04-19T15:44:14;7.60;;;3.15;;
14203;SDS011;7185;51.854;6.622;2023-04-19T15:46:47;6.43;;;2.83;;
14203;SDS011;7185;51.854;6.622;2023-04-19T15:49:21;6.00;;;3.00;;